Portada
METAR-TAF:

METAR-TAF

Aeroports :

Aeroport Internacional de Kansai

Kansai, Japó

latitud: 34-25N, longitud: 135-15E, altitud: 5 m

Observació

L'informe es va fer fa 30 minuts, a les 18:30 UTC
Vent 16 kt del Nord/Nord-Oest
Temperatura 9°C
Humitat 81%
Pressió 1024 hPa
Visibilitat 10 km o més
Escasses núvols a una alçada de 2400 ft
Núvols disperses a una alçada de 3800 ft
Cel cobert a una alçada de 4000 ft

METAR: RJBB 241830Z AUTO 33016KT 9999 FEW024 SCT038 OVC040 09/06 Q1024 NOSIG

Hora: 04:00 (19:00 UTC)

Pronòstic

L'informe es va fer fa 34 minuts, a les 18:26 UTC
Pronòstic vàlid del 24 a les 18 UTC al 26 a les 00 UTC
Vent 15 kt del Nord/Nord-Oest
Visibilitat 10 km o més
Escasses núvols a una alçada de 1500 ft
Núvols disperses a una alçada de 2500 ft
Evolucionant progressivament
l' 24 a les 20 UTC al 24 a les 22 UTC
Vent 8 kt del Nord-Est

TAF: RJBB 241826Z 2418/2600 33015KT 9999 FEW015 SCT025 BECMG 2420/2422 04008KT

Observacions i pronòstics meteorològics de més de 4000 aeroports (METAR i TAF).

Les estacions disponibles són els punts grocs i vermells al mapa.

Posi el ratolí al punt desitjat per veure el nom de l'estació.

Feu clic per veure les observacions i els pronòstics meteorològics.

Per canviar el mapa: feu clic els botons verds amb una creu de color negre per apropar; al botó verd amb un guió per allunyar la imatge; o en les fletxes verdes per a mapes adjacents.


METAR-TAF: